Time;durP1;ratioP1;P1;durP2;ratioP2;P2;SDS_P1;SDS_P2;PMS_P1;PMS_P2;Temp;Humidity;BMP_temperature;BMP_pressure;BME280_temperature;BME280_humidity;BME280_pressure;Samples;Min_cycle;Max_cycle;Signal;HPM_P1;HPM_P2
2023/12/12 00:00:59;;;;;;;18.80;3.27;;;7.20;99.90;;;7.99;100.00;97475.41;5054191;28;20476;-79
2023/12/12 00:03:29;;;;;;;16.07;3.20;;;7.10;99.90;;;7.96;100.00;97470.59;5056488;28;20492;-79
2023/12/12 00:06:01;;;;;;;29.70;3.80;;;7.10;99.90;;;7.91;100.00;97469.53;5055243;28;20515;-80
2023/12/12 00:08:30;;;;;;;12.50;2.33;;;7.10;99.90;;;7.86;100.00;97469.28;5051570;28;21274;-79
2023/12/12 00:10:58;;;;;;;8.10;2.00;;;7.00;99.90;;;7.88;100.00;97464.69;5054276;28;21018;-79
2023/12/12 00:13:27;;;;;;;12.00;3.00;;;7.00;99.90;;;7.83;100.00;97461.84;5053979;28;20824;-79
2023/12/12 00:15:56;;;;;;;7.90;2.30;;;7.00;99.90;;;7.80;100.00;97457.00;5053179;28;20501;-79
2023/12/12 00:18:24;;;;;;;12.00;3.53;;;6.90;99.90;;;7.82;100.00;97470.63;5054758;28;20564;-78
2023/12/12 00:20:54;;;;;;;10.60;2.33;;;7.00;99.90;;;7.81;100.00;97461.22;5052333;28;20460;-79
2023/12/12 00:23:23;;;;;;;12.43;3.03;;;6.90;99.90;;;7.76;100.00;97466.16;5053810;28;20459;-79
2023/12/12 00:25:51;;;;;;;18.23;2.77;;;6.90;99.90;;;7.74;100.00;97475.97;5052347;28;20457;-78
2023/12/12 00:28:20;;;;;;;9.13;2.43;;;6.80;99.90;;;7.70;100.00;97477.31;5052509;28;20470;-79
2023/12/12 00:30:48;;;;;;;9.03;2.20;;;6.80;99.90;;;7.71;100.00;97473.69;5055836;28;20944;-79
2023/12/12 00:33:17;;;;;;;17.27;3.80;;;6.80;99.90;;;7.67;100.00;97467.28;5050094;28;20551;-80
2023/12/12 00:35:46;;;;;;;9.43;2.23;;;6.80;99.90;;;7.59;100.00;97474.19;5054898;28;20568;-79
2023/12/12 00:38:16;;;;;;;14.47;2.90;;;6.80;99.90;;;7.63;100.00;97476.41;5049408;28;20469;-79
2023/12/12 00:40:53;;;;;;;19.93;3.00;;;6.80;99.90;;;7.64;100.00;97465.81;5053214;28;20461;-79
2023/12/12 00:43:22;;;;;;;13.70;4.00;;;6.80;99.90;;;7.59;100.00;97465.56;5055572;28;20534;-79
2023/12/12 00:45:51;;;;;;;10.57;3.20;;;6.80;99.90;;;7.57;100.00;97463.13;5056029;28;20525;-79
2023/12/12 00:48:20;;;;;;;15.90;2.70;;;6.70;99.90;;;7.60;100.00;97460.16;5057718;28;20457;-79
2023/12/12 00:50:49;;;;;;;15.00;2.97;;;6.80;99.90;;;7.55;100.00;97448.72;5057064;28;20492;-79
2023/12/12 00:53:18;;;;;;;10.87;2.20;;;6.70;99.90;;;7.51;100.00;97463.06;5056485;28;20476;-79
2023/12/12 00:55:47;;;;;;;15.30;2.77;;;6.60;99.90;;;7.49;100.00;97455.47;5058310;28;20797;-79
2023/12/12 00:58:15;;;;;;;8.73;2.50;;;6.60;99.90;;;7.46;100.00;97449.81;5055079;28;20479;-79
2023/12/12 01:00:44;;;;;;;8.40;2.43;;;6.60;99.90;;;7.39;100.00;97456.72;5056764;28;20465;-79
2023/12/12 01:03:13;;;;;;;15.73;2.63;;;6.50;99.90;;;7.39;100.00;97465.31;5056921;28;20966;-79
2023/12/12 01:05:41;;;;;;;9.23;2.40;;;6.50;99.90;;;7.41;100.00;97463.34;5056409;28;21023;-79
2023/12/12 01:08:10;;;;;;;11.50;2.27;;;6.50;99.90;;;7.41;100.00;97457.34;5056639;28;20836;-79
2023/12/12 01:10:39;;;;;;;14.90;2.87;;;6.60;99.90;;;7.36;100.00;97465.69;5055885;28;20523;-79
2023/12/12 01:13:08;;;;;;;20.40;3.47;;;6.50;99.90;;;7.35;100.00;97464.09;5057826;28;20477;-79
2023/12/12 01:15:37;;;;;;;10.07;2.10;;;6.50;99.90;;;7.39;100.00;97465.31;5057169;28;20467;-79
2023/12/12 01:18:05;;;;;;;6.87;2.70;;;6.50;99.90;;;7.37;100.00;97462.09;5057111;28;20473;-79
2023/12/12 01:20:34;;;;;;;10.47;2.73;;;6.60;99.90;;;7.36;100.00;97463.06;5056840;28;21017;-79
2023/12/12 01:23:03;;;;;;;8.90;2.37;;;6.60;99.90;;;7.38;100.00;97463.72;5057607;28;20461;-79
2023/12/12 01:25:31;;;;;;;8.67;2.00;;;6.50;99.90;;;7.35;100.00;97458.88;5056774;28;20460;-79
2023/12/12 01:28:02;;;;;;;7.00;2.17;;;6.50;99.90;;;7.34;100.00;97446.84;5058318;28;20467;-78
2023/12/12 01:30:30;;;;;;;9.37;2.30;;;6.50;99.90;;;7.26;100.00;97452.16;5056908;28;20469;-79
2023/12/12 01:32:59;;;;;;;12.80;2.70;;;6.40;99.90;;;7.26;100.00;97457.34;5056358;28;20865;-79
2023/12/12 01:35:27;;;;;;;5.23;2.00;;;6.40;99.90;;;7.24;100.00;97451.53;5057397;28;20549;-79
2023/12/12 01:37:56;;;;;;;4.67;1.90;;;6.30;99.90;;;7.25;100.00;97460.16;5056804;28;20496;-79
2023/12/12 01:40:24;;;;;;;22.90;3.33;;;6.30;99.90;;;7.21;100.00;97467.50;5056328;28;20465;-79
2023/12/12 01:43:05;;;;;;;9.53;3.00;;;6.20;99.90;;;7.18;100.00;97467.06;5054774;28;20576;-79
2023/12/12 01:45:34;;;;;;;12.63;2.27;;;6.20;99.90;;;7.15;100.00;97470.78;5056193;28;20536;-78
2023/12/12 01:48:03;;;;;;;15.67;2.70;;;6.20;99.90;;;7.16;100.00;97459.41;5054148;28;20890;-78
2023/12/12 01:50:31;;;;;;;3.57;1.90;;;6.20;99.90;;;7.13;100.00;97453.78;5053592;28;20463;-79
2023/12/12 01:53:00;;;;;;;7.53;2.17;;;6.10;99.90;;;7.11;100.00;97453.16;5057641;28;20461;-79
2023/12/12 01:55:28;;;;;;;18.30;3.60;;;6.20;99.90;;;7.06;100.00;97462.28;5056244;28;21045;-79
2023/12/12 01:57:57;;;;;;;9.00;2.47;;;6.10;99.90;;;7.01;100.00;97461.22;5053317;28;20507;-79
2023/12/12 02:00:27;;;;;;;9.07;2.57;;;6.10;99.90;;;6.97;100.00;97462.56;5053504;28;20835;-79
2023/12/12 02:02:56;;;;;;;7.80;2.20;;;6.10;99.90;;;6.95;100.00;97456.72;5055215;28;20465;-79
2023/12/12 02:05:29;;;;;;;19.07;2.63;;;6.10;99.90;;;6.95;100.00;97462.72;5055316;28;20864;-80
2023/12/12 02:08:01;;;;;;;11.90;2.50;;;6.10;99.90;;;6.99;100.00;97445.81;5057730;28;20471;-79
2023/12/12 02:10:32;;;;;;;13.97;3.80;;;6.20;99.90;;;6.97;100.00;97446.97;5056103;28;20460;-81
2023/12/12 02:13:01;;;;;;;6.23;2.20;;;6.10;99.90;;;6.96;100.00;97456.56;5055068;28;20963;-80
2023/12/12 02:15:31;;;;;;;14.00;2.10;;;6.10;99.90;;;6.92;100.00;97451.88;5055121;28;20453;-79
2023/12/12 02:18:00;;;;;;;14.93;2.40;;;6.00;99.90;;;6.89;100.00;97457.44;5059159;28;20561;-79
2023/12/12 02:20:28;;;;;;;8.20;2.47;;;5.90;99.90;;;6.87;100.00;97459.44;5056748;28;20559;-79
2023/12/12 02:22:58;;;;;;;19.47;2.50;;;5.90;99.90;;;6.82;100.00;97459.13;5057255;28;20461;-79
2023/12/12 02:25:27;;;;;;;9.43;2.07;;;5.80;99.90;;;6.77;100.00;97464.06;5054948;28;20460;-79
2023/12/12 02:27:59;;;;;;;17.37;2.83;;;5.80;99.90;;;6.71;100.00;97459.56;5054921;28;20464;-79
2023/12/12 02:30:27;;;;;;;11.70;2.90;;;5.70;99.90;;;6.73;100.00;97462.81;5056423;28;20465;-79
2023/12/12 02:32:57;;;;;;;10.43;2.30;;;5.80;99.90;;;6.67;100.00;97463.50;5054812;28;21094;-78
2023/12/12 02:35:27;;;;;;;11.23;2.87;;;5.80;99.90;;;6.69;100.00;97459.75;5056170;28;20825;-79
2023/12/12 02:37:55;;;;;;;15.00;2.83;;;5.80;99.90;;;6.67;100.00;97458.31;5053294;28;20505;-79
2023/12/12 02:40:25;;;;;;;13.20;2.60;;;5.70;99.90;;;6.67;100.00;97463.50;5054670;28;20463;-79
2023/12/12 02:42:54;;;;;;;16.23;4.23;;;5.80;99.90;;;6.68;100.00;97460.75;5055834;28;20469;-79
2023/12/12 02:45:22;;;;;;;11.27;1.87;;;5.80;99.90;;;6.70;100.00;97460.56;5053021;28;20528;-79
2023/12/12 02:47:51;;;;;;;17.43;2.70;;;5.90;99.90;;;6.69;100.00;97461.56;5055353;28;21036;-79
2023/12/12 02:50:20;;;;;;;8.77;2.70;;;6.00;99.90;;;6.70;100.00;97463.94;5057182;28;20464;-80
2023/12/12 02:52:52;;;;;;;10.40;2.80;;;5.90;99.90;;;6.70;100.00;97452.78;5056075;28;20455;-79
2023/12/12 02:55:21;;;;;;;17.63;2.30;;;5.80;99.90;;;6.71;100.00;97454.38;5053361;28;20464;-79
2023/12/12 02:57:51;;;;;;;14.83;2.90;;;5.80;99.90;;;6.73;100.00;97447.22;5052995;28;20615;-79
2023/12/12 03:00:20;;;;;;;12.43;2.80;;;5.90;99.90;;;6.73;100.00;97447.22;5055319;28;21261;-79
2023/12/12 03:02:48;;;;;;;14.77;2.73;;;5.90;99.90;;;6.73;100.00;97452.41;5056266;28;20463;-80
2023/12/12 03:05:17;;;;;;;6.67;2.27;;;5.80;99.90;;;6.75;100.00;97455.63;5057131;28;20492;-79
2023/12/12 03:07:45;;;;;;;8.10;2.27;;;5.90;99.90;;;6.77;100.00;97449.28;5053241;28;20465;-79
2023/12/12 03:10:14;;;;;;;13.30;2.47;;;5.90;99.90;;;6.76;100.00;97452.88;5055719;28;20460;-79
2023/12/12 03:12:43;;;;;;;11.87;3.07;;;6.00;99.90;;;6.78;100.00;97450.91;5054603;28;20840;-79
2023/12/12 03:15:13;;;;;;;9.87;2.73;;;6.00;99.90;;;6.78;100.00;97445.69;5054099;28;20837;-79
2023/12/12 03:17:41;;;;;;;13.33;3.30;;;6.00;99.90;;;6.81;100.00;97445.34;5053610;28;20581;-79
2023/12/12 03:20:11;;;;;;;7.93;2.20;;;6.00;99.90;;;6.82;100.00;97446.16;5051784;28;20500;-79
2023/12/12 03:22:39;;;;;;;13.73;2.90;;;6.00;99.90;;;6.83;100.00;97439.97;5053990;28;20843;-79
2023/12/12 03:25:08;;;;;;;5.63;2.10;;;5.90;99.90;;;6.84;100.00;97438.97;5054004;28;20900;-79
2023/12/12 03:27:37;;;;;;;8.50;2.30;;;5.90;99.90;;;6.88;100.00;97450.63;5054453;28;20471;-79
2023/12/12 03:30:07;;;;;;;14.17;3.00;;;5.90;99.90;;;6.85;100.00;97438.81;5052499;28;20453;-79
2023/12/12 03:32:37;;;;;;;4.97;1.93;;;6.00;99.90;;;6.83;100.00;97438.19;5056515;28;20467;-79
2023/12/12 03:35:06;;;;;;;5.40;2.43;;;6.10;99.90;;;6.83;100.00;97429.59;5054538;28;20525;-79
2023/12/12 03:37:35;;;;;;;21.33;3.07;;;6.00;99.90;;;6.83;100.00;97425.19;5052672;28;20492;-79
2023/12/12 03:40:05;;;;;;;15.57;3.10;;;6.10;99.90;;;6.87;100.00;97428.25;5053843;28;20519;-79
2023/12/12 03:42:34;;;;;;;7.67;2.80;;;6.00;99.90;;;6.84;100.00;97426.78;5052671;28;20465;-79
2023/12/12 03:45:03;;;;;;;13.30;2.57;;;6.10;99.90;;;6.87;100.00;97417.84;5053588;28;20982;-79
2023/12/12 03:47:31;;;;;;;9.80;2.17;;;6.00;99.90;;;6.87;100.00;97415.25;5054374;28;20831;-79
2023/12/12 03:50:03;;;;;;;6.90;2.00;;;6.00;99.90;;;6.86;100.00;97418.81;5051593;28;20461;-79
2023/12/12 03:52:32;;;;;;;8.23;2.60;;;6.00;99.90;;;6.84;100.00;97407.78;5054665;28;20470;-79
2023/12/12 03:55:00;;;;;;;9.10;2.40;;;5.90;99.90;;;6.84;100.00;97410.38;5054040;28;20991;-79
2023/12/12 03:57:29;;;;;;;8.80;2.70;;;5.90;99.90;;;6.85;100.00;97406.81;5053919;28;20833;-77
2023/12/12 03:59:58;;;;;;;11.07;2.70;;;5.90;99.90;;;6.82;100.00;97404.56;5054658;28;20605;-79
2023/12/12 04:02:28;;;;;;;11.97;2.47;;;5.90;99.90;;;6.81;100.00;97402.97;5052493;28;20471;-79
2023/12/12 04:04:57;;;;;;;7.10;2.53;;;5.80;99.90;;;6.79;100.00;97399.75;5053133;28;20475;-78
2023/12/12 04:07:27;;;;;;;17.70;3.73;;;5.90;99.90;;;6.73;100.00;97393.47;5050211;28;20569;-79
2023/12/12 04:09:56;;;;;;;9.53;2.93;;;5.90;99.90;;;6.77;100.00;97391.34;5050908;28;20475;-78
2023/12/12 04:12:24;;;;;;;15.00;4.83;;;5.90;99.90;;;6.75;100.00;97398.47;5049019;28;20471;-79
2023/12/12 04:14:53;;;;;;;8.23;3.73;;;5.80;99.90;;;6.73;100.00;97393.47;5052750;28;20964;-78
2023/12/12 04:17:24;;;;;;;13.43;3.87;;;5.80;99.90;;;6.68;100.00;97392.38;5053681;28;20962;-78
2023/12/12 04:19:53;;;;;;;4.93;3.20;;;5.90;99.90;;;6.69;100.00;97394.00;5054204;28;20464;-78
2023/12/12 04:22:22;;;;;;;12.80;3.87;;;5.80;99.90;;;6.70;100.00;97398.22;5052976;28;21008;-78
2023/12/12 04:24:52;;;;;;;4.47;2.40;;;5.80;99.90;;;6.74;100.00;97394.25;5052690;28;20476;-78
2023/12/12 04:27:21;;;;;;;11.73;3.57;;;5.80;99.90;;;6.73;100.00;97392.66;5052425;28;20456;-79
2023/12/12 04:29:49;;;;;;;36.63;11.20;;;5.80;99.90;;;6.72;100.00;97398.84;5049273;28;20517;-78
2023/12/12 04:32:17;;;;;;;20.90;8.70;;;5.90;99.90;;;6.71;100.00;97402.41;5050736;28;20456;-78
2023/12/12 04:34:46;;;;;;;7.33;2.90;;;5.90;99.90;;;6.72;100.00;97398.84;5052607;28;20971;-77
2023/12/12 04:37:15;;;;;;;21.23;3.40;;;5.90;99.90;;;6.72;100.00;97393.66;5052160;28;20890;-78
2023/12/12 04:39:43;;;;;;;14.37;4.90;;;5.90;99.90;;;6.71;100.00;97389.44;5052403;28;20970;-78
2023/12/12 04:42:15;;;;;;;10.43;2.87;;;5.90;99.90;;;6.73;100.00;97390.06;5052203;28;20475;-78
2023/12/12 04:44:43;;;;;;;11.17;4.13;;;5.90;99.90;;;6.73;100.00;97384.88;5054212;28;20457;-78
2023/12/12 04:47:13;;;;;;;14.13;3.37;;;5.80;99.90;;;6.72;100.00;97383.25;5055282;28;20471;-78
2023/12/12 04:49:41;;;;;;;6.80;3.33;;;5.80;99.90;;;6.71;100.00;97381.63;5053395;28;20848;-78
2023/12/12 04:52:10;;;;;;;9.00;3.40;;;5.90;99.90;;;6.70;100.00;97383.41;5053413;28;20480;-78
2023/12/12 04:54:39;;;;;;;10.73;3.20;;;5.80;99.90;;;6.68;100.00;97382.81;5052695;28;20557;-78
2023/12/12 04:57:07;;;;;;;11.90;3.50;;;5.80;99.90;;;6.67;100.00;97388.16;5054722;28;20546;-78
2023/12/12 04:59:37;;;;;;;11.93;3.40;;;5.80;99.90;;;6.67;100.00;97383.78;5052300;28;20484;-78
2023/12/12 05:02:06;;;;;;;10.77;3.23;;;5.80;99.90;;;6.64;100.00;97380.72;5052124;28;20466;-78
2023/12/12 05:04:36;;;;;;;8.60;3.40;;;5.80;99.90;;;6.58;100.00;97380.47;5050784;28;20988;-78
2023/12/12 05:07:05;;;;;;;13.93;3.63;;;5.80;99.90;;;6.63;100.00;97377.31;5053960;28;20739;-78
2023/12/12 05:09:33;;;;;;;12.03;3.50;;;5.80;99.90;;;6.62;100.00;97367.94;5052349;28;20471;-78
2023/12/12 05:12:02;;;;;;;12.63;3.20;;;5.80;99.90;;;6.67;100.00;97370.78;5053468;28;20863;-78
2023/12/12 05:14:30;;;;;;;11.53;2.90;;;5.80;99.90;;;6.70;100.00;97367.06;5051257;28;20468;-78
2023/12/12 05:17:00;;;;;;;6.93;3.10;;;5.80;99.90;;;6.69;100.00;97362.84;5051832;28;20995;-78
2023/12/12 05:19:38;;;;;;;8.80;2.87;;;5.80;99.90;;;6.71;100.00;97371.25;5051455;28;20496;-78
2023/12/12 05:22:07;;;;;;;6.03;2.77;;;5.80;99.90;;;6.73;100.00;97366.69;5053231;28;20514;-78
2023/12/12 05:24:35;;;;;;;10.83;2.90;;;5.80;99.90;;;6.72;100.00;97363.28;5053406;28;21046;-78
2023/12/12 05:27:05;;;;;;;12.43;3.03;;;5.80;99.90;;;6.74;100.00;97352.69;5053604;28;20472;-78
2023/12/12 05:29:33;;;;;;;12.90;3.30;;;5.80;99.90;;;6.74;100.00;97352.69;5050192;28;20842;-77
2023/12/12 05:32:04;;;;;;;8.43;2.90;;;5.90;99.90;;;6.73;100.00;97349.31;5051509;28;20460;-79
2023/12/12 05:34:32;;;;;;;11.23;3.67;;;5.90;99.90;;;6.76;100.00;97348.94;5053682;28;20506;-77
2023/12/12 05:37:01;;;;;;;6.30;2.63;;;5.90;99.90;;;6.79;100.00;97342.59;5052813;28;20836;-77
2023/12/12 05:39:29;;;;;;;4.70;2.60;;;5.90;99.90;;;6.82;100.00;97339.63;5055522;28;20500;-78
2023/12/12 05:41:58;;;;;;;11.20;3.67;;;5.90;99.90;;;6.81;100.00;97330.19;5054079;28;20512;-77
2023/12/12 05:44:26;;;;;;;12.70;3.07;;;6.00;99.90;;;6.79;100.00;97334.78;5053934;28;20517;-77
2023/12/12 05:46:55;;;;;;;10.10;3.80;;;6.00;99.90;;;6.82;100.00;97329.22;5056200;28;20460;-77
2023/12/12 05:49:25;;;;;;;11.90;3.30;;;6.00;99.90;;;6.84;100.00;97309.06;5058470;28;20875;-78
2023/12/12 05:51:55;;;;;;;12.73;4.00;;;6.00;99.90;;;6.85;100.00;97315.88;5057615;28;20521;-78
2023/12/12 05:54:24;;;;;;;23.20;3.90;;;6.00;99.90;;;6.88;100.00;97311.13;5058148;28;21061;-77
2023/12/12 05:56:54;;;;;;;6.67;2.73;;;6.00;99.90;;;6.85;100.00;97321.06;5058438;28;20457;-78
2023/12/12 05:59:23;;;;;;;10.80;3.20;;;6.00;99.90;;;6.82;100.00;97317.03;5057011;28;20492;-77
2023/12/12 06:01:52;;;;;;;13.23;2.90;;;6.00;99.90;;;6.83;100.00;97308.28;5058246;28;20469;-78
2023/12/12 06:04:20;;;;;;;7.80;2.80;;;6.00;99.90;;;6.85;100.00;97301.09;5058509;28;20461;-77
2023/12/12 06:06:51;;;;;;;10.17;3.23;;;6.00;99.90;;;6.88;100.00;97305.91;5058678;28;20959;-77
2023/12/12 06:09:20;;;;;;;8.47;3.13;;;6.00;99.90;;;6.87;100.00;97299.09;5057724;28;20571;-77
2023/12/12 06:11:49;;;;;;;16.63;3.93;;;6.00;99.90;;;6.88;100.00;97305.09;5056165;28;20464;-77
2023/12/12 06:14:18;;;;;;;11.90;3.33;;;5.90;99.90;;;6.88;100.00;97299.91;5055688;28;20457;-77
2023/12/12 06:16:46;;;;;;;7.43;2.53;;;5.80;99.90;;;6.89;100.00;97314.53;5055595;28;20465;-76
2023/12/12 06:19:15;;;;;;;14.20;3.17;;;5.90;99.90;;;6.89;100.00;97306.72;5057528;28;20917;-77
2023/12/12 06:21:44;;;;;;;8.53;3.27;;;6.00;99.90;;;6.89;100.00;97306.72;5056841;28;20468;-77
2023/12/12 06:24:14;;;;;;;9.23;3.00;;;6.00;99.90;;;6.91;100.00;97302.94;5056983;28;20461;-77
2023/12/12 06:26:43;;;;;;;6.63;2.63;;;6.00;99.90;;;6.95;100.00;97303.41;5056936;28;20461;-77
2023/12/12 06:29:12;;;;;;;13.03;3.17;;;6.10;99.90;;;6.96;100.00;97295.44;5055932;28;20465;-77
2023/12/12 06:31:41;;;;;;;13.50;2.90;;;6.10;99.90;;;7.00;100.00;97280.28;5055127;28;20469;-78
2023/12/12 06:34:10;;;;;;;7.03;2.37;;;6.20;99.90;;;7.01;100.00;97293.06;5054952;28;20460;-78
2023/12/12 06:36:41;;;;;;;4.77;2.40;;;6.20;99.90;;;7.01;100.00;97294.88;5055194;28;20505;-77
2023/12/12 06:39:11;;;;;;;12.97;2.70;;;6.10;99.90;;;7.00;100.00;97288.06;5055155;28;20512;-77
2023/12/12 06:41:41;;;;;;;10.63;2.47;;;6.10;99.90;;;7.03;100.00;97285.09;5054401;28;20468;-77
2023/12/12 06:44:10;;;;;;;10.73;3.00;;;6.10;99.90;;;7.05;100.00;97275.31;5055878;28;20555;-77
2023/12/12 06:46:39;;;;;;;11.20;3.00;;;6.20;99.90;;;7.05;100.00;97273.53;5055155;28;20469;-77
2023/12/12 06:49:09;;;;;;;12.07;3.33;;;6.10;99.90;;;7.06;100.00;97269.94;5057155;28;20472;-77
2023/12/12 06:51:38;;;;;;;7.70;2.23;;;6.20;99.90;;;7.10;100.00;97270.38;5056983;28;20469;-77
2023/12/12 06:54:07;;;;;;;8.23;2.97;;;6.20;99.90;;;7.09;100.00;97266.16;5056983;28;20828;-77
2023/12/12 06:56:35;;;;;;;16.10;3.57;;;6.20;99.90;;;7.12;100.00;97263.19;5056658;28;20495;-77
2023/12/12 06:59:06;;;;;;;13.80;3.40;;;6.20;99.90;;;7.15;100.00;97270.63;5055239;28;20562;-77
2023/12/12 07:01:34;;;;;;;7.70;2.53;;;6.30;99.90;;;7.13;100.00;97264.81;5055451;28;20469;-77
2023/12/12 07:04:04;;;;;;;6.80;2.47;;;6.20;99.90;;;7.13;100.00;97262.22;5056253;28;20465;-77
2023/12/12 07:06:32;;;;;;;14.10;3.33;;;6.20;99.90;;;7.14;100.00;97256.03;5056644;28;20452;-77
2023/12/12 07:09:01;;;;;;;5.93;2.67;;;6.20;99.90;;;7.12;100.00;97247.59;5055774;28;20526;-78
2023/12/12 07:11:31;;;;;;;12.30;3.10;;;6.20;99.90;;;7.10;100.00;97247.00;5054492;28;20473;-78
2023/12/12 07:13:59;;;;;;;11.67;3.10;;;6.20;99.90;;;7.11;100.00;97235.59;5057714;28;20985;-77
2023/12/12 07:16:29;;;;;;;6.43;2.33;;;6.30;99.90;;;7.09;100.00;97242.78;5056158;28;20465;-77
2023/12/12 07:18:58;;;;;;;9.03;2.47;;;6.20;99.90;;;7.09;100.00;97230.59;5055911;28;20488;-77
2023/12/12 07:21:27;;;;;;;17.23;3.43;;;6.20;99.90;;;7.11;100.00;97243.41;5055801;28;20549;-78
2023/12/12 07:23:56;;;;;;;5.30;2.63;;;6.20;99.90;;;7.09;100.00;97247.97;5056416;28;20989;-78
2023/12/12 07:26:25;;;;;;;9.60;2.40;;;6.20;99.90;;;7.12;100.00;97265.78;5056113;28;20473;-78
2023/12/12 07:28:53;;;;;;;8.47;3.00;;;6.30;99.90;;;7.12;100.00;97260.59;5058080;28;20999;-77
2023/12/12 07:31:22;;;;;;;20.17;3.20;;;6.30;99.90;;;7.17;100.00;97258.25;5055749;28;20481;-77
2023/12/12 07:33:52;;;;;;;9.73;3.37;;;6.30;99.90;;;7.20;100.00;97247.50;5054197;28;20462;-78
2023/12/12 07:36:21;;;;;;;13.50;3.27;;;6.30;99.90;;;7.25;100.00;97246.94;5056297;28;20984;-77
2023/12/12 07:38:49;;;;;;;9.03;2.93;;;6.40;99.90;;;7.25;100.00;97242.53;5055283;28;20493;-77
2023/12/12 07:41:18;;;;;;;10.23;3.17;;;6.40;99.90;;;7.25;100.00;97239.94;5052048;28;20570;-77
2023/12/12 07:43:46;;;;;;;5.97;2.90;;;6.40;99.90;;;7.27;100.00;97237.16;5054719;28;20544;-77
2023/12/12 07:46:15;;;;;;;12.10;3.10;;;6.40;99.90;;;7.29;100.00;97232.59;5052681;28;20465;-77
2023/12/12 07:48:44;;;;;;;12.63;3.07;;;6.40;99.90;;;7.32;100.00;97230.41;5056984;28;20913;-78
2023/12/12 07:51:14;;;;;;;16.13;2.80;;;6.40;99.90;;;7.35;100.00;97235.25;5055540;28;20469;-77
2023/12/12 07:53:42;;;;;;;14.10;3.10;;;6.50;99.90;;;7.34;100.00;97236.22;5057338;28;20468;-78
2023/12/12 07:56:11;;;;;;;12.70;2.80;;;6.50;99.90;;;7.33;100.00;97237.19;5055744;28;20491;-77
2023/12/12 07:58:40;;;;;;;10.83;4.30;;;6.40;99.90;;;7.33;100.00;97247.59;5055603;28;20457;-77
2023/12/12 08:01:09;;;;;;;10.63;3.00;;;6.40;99.90;;;7.33;100.00;97234.59;5055888;28;20528;-77
2023/12/12 08:03:38;;;;;;;11.47;3.37;;;6.40;99.90;;;7.31;100.00;97241.78;5053965;28;20477;-77
2023/12/12 08:06:07;;;;;;;6.20;2.93;;;6.50;99.90;;;7.35;100.00;97222.25;5056098;28;20552;-77
2023/12/12 08:08:37;;;;;;;12.13;3.57;;;6.50;99.90;;;7.39;100.00;97220.06;5053502;28;20466;-76
2023/12/12 08:11:13;;;;;;;14.03;3.83;;;6.50;99.90;;;7.38;100.00;97224.47;5055433;28;20473;-77
2023/12/12 08:13:41;;;;;;;22.07;4.40;;;6.50;99.90;;;7.42;100.00;97212.69;5052479;28;20456;-77
2023/12/12 08:16:10;;;;;;;14.30;4.30;;;6.50;99.90;;;7.46;100.00;97210.53;5056743;28;20464;-77
2023/12/12 08:18:39;;;;;;;10.07;2.87;;;6.60;99.90;;;7.49;100.00;97208.34;5053692;28;21013;-77
2023/12/12 08:21:10;;;;;;;11.17;3.57;;;6.60;99.90;;;7.50;100.00;97186.53;5052014;28;20496;-78
2023/12/12 08:23:42;;;;;;;8.60;2.80;;;6.60;99.90;;;7.53;100.00;97186.16;5055824;28;20632;-77
2023/12/12 08:26:11;;;;;;;11.83;3.50;;;6.70;99.90;;;7.51;100.00;97176.94;5055267;28;20547;-77
2023/12/12 08:28:40;;;;;;;10.07;3.27;;;6.60;99.90;;;7.52;100.00;97176.75;5055773;28;20465;-78
2023/12/12 08:31:08;;;;;;;12.40;3.30;;;6.60;99.90;;;7.54;100.00;97187.75;5056642;28;20469;-77
2023/12/12 08:33:37;;;;;;;8.97;2.53;;;6.70;99.90;;;7.57;100.00;97186.56;5052615;28;20464;-77
2023/12/12 08:36:08;;;;;;;12.07;3.47;;;6.70;99.90;;;7.57;100.00;97187.38;5054823;28;20464;-77
2023/12/12 08:38:36;;;;;;;7.70;3.57;;;6.70;99.90;;;7.58;100.00;97196.00;5055869;28;20880;-78
2023/12/12 08:41:07;;;;;;;16.17;3.40;;;6.70;99.90;;;7.59;100.00;97195.81;5054993;28;20501;-78
2023/12/12 08:43:41;;;;;;;13.63;3.47;;;6.70;99.90;;;7.57;100.00;97197.78;5053217;28;20550;-77
2023/12/12 08:46:10;;;;;;;12.10;3.73;;;6.70;99.90;;;7.56;100.00;97195.41;5055629;28;20967;-78
2023/12/12 08:48:39;;;;;;;10.77;3.23;;;6.70;99.90;;;7.59;100.00;97193.22;5054176;28;20514;-77
2023/12/12 08:51:08;;;;;;;15.40;3.17;;;6.70;99.90;;;7.64;100.00;97184.00;5055899;28;20572;-77
2023/12/12 08:53:36;;;;;;;19.60;3.83;;;6.70;99.90;;;7.68;100.00;97180.84;5054725;28;20551;-77
2023/12/12 08:56:14;;;;;;;17.43;3.37;;;6.80;99.90;;;7.73;100.00;97180.28;5056384;28;20884;-77
2023/12/12 08:58:44;;;;;;;7.87;2.93;;;6.90;99.90;;;7.75;100.00;97167.88;5052365;28;20464;-78
2023/12/12 09:01:17;;;;;;;17.07;3.70;;;7.00;99.90;;;7.79;100.00;97156.91;5052988;28;20944;-79
2023/12/12 09:03:46;;;;;;;7.27;3.00;;;7.00;99.90;;;7.81;100.00;97151.53;5054235;28;20531;-77
2023/12/12 09:06:15;;;;;;;18.60;4.10;;;7.00;99.90;;;7.82;100.00;97150.50;5054270;28;20469;-77
2023/12/12 09:08:44;;;;;;;13.00;4.30;;;7.00;99.90;;;7.82;100.00;97142.72;5057876;28;20465;-78
2023/12/12 09:11:14;;;;;;;13.20;3.97;;;7.00;99.90;;;7.85;100.00;97137.13;5059315;28;20455;-77
2023/12/12 09:13:44;;;;;;;11.93;3.70;;;7.00;99.90;;;7.86;100.00;97138.72;5059452;28;20489;-77
2023/12/12 09:16:13;;;;;;;10.63;4.00;;;7.00;99.90;;;7.88;100.00;97134.16;5059439;28;20551;-78
2023/12/12 09:18:41;;;;;;;17.97;5.07;;;7.10;99.90;;;7.90;100.00;97126.94;5056903;28;20526;-77
2023/12/12 09:21:10;;;;;;;16.17;4.07;;;7.10;99.90;;;7.91;100.00;97125.97;5058257;28;20559;-77
2023/12/12 09:23:41;;;;;;;10.57;4.30;;;7.10;99.90;;;7.94;100.00;97125.56;5056937;28;20461;-77
2023/12/12 09:26:15;;;;;;;19.93;4.43;;;7.10;99.90;;;7.92;100.00;97122.34;5057637;28;20456;-77
2023/12/12 09:28:44;;;;;;;16.43;4.40;;;7.10;99.90;;;7.93;100.00;97116.94;5058476;28;20463;-77
2023/12/12 09:31:13;;;;;;;20.00;4.43;;;7.00;99.90;;;7.92;100.00;97101.50;5057539;28;20475;-77
2023/12/12 09:33:41;;;;;;;29.63;5.07;;;7.20;99.90;;;7.96;100.00;97102.75;5058252;28;20465;-77
2023/12/12 09:36:11;;;;;;;14.13;4.50;;;7.10;99.90;;;8.01;100.00;97095.16;5058528;28;20476;-77
2023/12/12 09:38:40;;;;;;;23.53;4.80;;;7.20;99.90;;;8.04;100.00;97089.56;5058151;28;20543;-77
2023/12/12 09:41:21;;;;;;;24.80;5.87;;;7.20;99.90;;;8.07;100.00;97084.78;5057151;28;20526;-77
2023/12/12 09:43:51;;;;;;;11.43;4.77;;;7.20;99.90;;;8.07;100.00;97087.38;5056795;28;20460;-78
2023/12/12 09:46:20;;;;;;;12.93;4.40;;;7.20;99.90;;;8.08;100.00;97086.38;5058377;28;20475;-77
2023/12/12 09:48:52;;;;;;;25.50;4.77;;;7.20;99.90;;;8.09;100.00;97081.97;5058786;28;20487;-77
2023/12/12 09:51:22;;;;;;;34.73;5.93;;;7.20;99.90;;;8.09;100.00;97081.97;5057799;28;20798;-77
2023/12/12 09:53:52;;;;;;;14.30;4.73;;;7.30;99.90;;;8.13;100.00;97082.38;5057879;28;20460;-77
2023/12/12 09:56:24;;;;;;;16.63;5.00;;;7.30;99.90;;;8.15;100.00;97091.63;5058763;28;20469;-77
2023/12/12 09:58:53;;;;;;;20.33;4.80;;;7.30;99.90;;;8.18;100.00;97083.41;5056498;28;20486;-77
2023/12/12 10:01:25;;;;;;;31.97;6.47;;;7.30;99.90;;;8.20;100.00;97076.19;5056924;28;20511;-77
2023/12/12 10:03:55;;;;;;;26.03;5.93;;;7.40;99.90;;;8.24;100.00;97079.22;5057694;28;20547;-77
2023/12/12 10:06:30;;;;;;;31.33;6.00;;;7.50;99.90;;;8.25;100.00;97063.41;5058997;28;20990;-77
2023/12/12 10:09:00;;;;;;;25.50;6.00;;;7.50;99.90;;;8.27;100.00;97056.19;5056675;28;20499;-77
2023/12/12 10:11:30;;;;;;;15.03;4.40;;;7.50;99.90;;;8.30;100.00;97042.78;5054887;28;20596;-77
2023/12/12 10:14:00;;;;;;;17.17;4.73;;;7.50;99.90;;;8.32;100.00;97045.22;5058530;28;20905;-77
2023/12/12 10:16:30;;;;;;;12.97;5.07;;;7.50;99.90;;;8.33;100.00;97037.19;5057029;28;20940;-77
2023/12/12 10:19:01;;;;;;;16.43;5.07;;;7.50;99.90;;;8.37;100.00;97027.19;5058795;28;20514;-77
2023/12/12 10:21:31;;;;;;;17.80;5.93;;;7.50;99.90;;;8.39;100.00;97019.97;5057769;28;20489;-77
2023/12/12 10:24:00;;;;;;;12.23;4.87;;;7.50;99.90;;;8.40;100.00;97024.97;5058780;28;20464;-77
2023/12/12 10:26:33;;;;;;;18.23;6.00;;;7.60;99.90;;;8.43;100.00;97010.78;5058764;28;20478;-77
2023/12/12 10:29:02;;;;;;;26.33;6.73;;;7.60;99.90;;;8.45;100.00;97009.56;5056503;28;20491;-77